sensor_id;sensor_type;location;lat;lon;timestamp;P1;durP1;ratioP1;P2;durP2;ratioP2
9729;SDS011;4904;49.152;11.004;2024-01-30T00:02:11;7.95;;;6.80;;
9729;SDS011;4904;49.152;11.004;2024-01-30T00:04:38;10.20;;;6.95;;
9729;SDS011;4904;49.152;11.004;2024-01-30T00:07:05;9.32;;;6.15;;
9729;SDS011;4904;49.152;11.004;2024-01-30T00:09:33;10.77;;;7.13;;
9729;SDS011;4904;49.152;11.004;2024-01-30T00:12:00;11.30;;;7.18;;
9729;SDS011;4904;49.152;11.004;2024-01-30T00:14:27;9.05;;;6.57;;
9729;SDS011;4904;49.152;11.004;2024-01-30T00:16:54;7.03;;;6.32;;
9729;SDS011;4904;49.152;11.004;2024-01-30T00:19:21;8.70;;;6.25;;
9729;SDS011;4904;49.152;11.004;2024-01-30T00:21:48;9.48;;;6.38;;
9729;SDS011;4904;49.152;11.004;2024-01-30T00:24:15;8.50;;;6.57;;
9729;SDS011;4904;49.152;11.004;2024-01-30T00:26:43;8.43;;;6.10;;
9729;SDS011;4904;49.152;11.004;2024-01-30T00:29:09;8.63;;;6.38;;
9729;SDS011;4904;49.152;11.004;2024-01-30T00:31:37;9.93;;;6.35;;
9729;SDS011;4904;49.152;11.004;2024-01-30T00:34:04;7.60;;;6.47;;
9729;SDS011;4904;49.152;11.004;2024-01-30T00:36:30;7.40;;;6.07;;
9729;SDS011;4904;49.152;11.004;2024-01-30T00:38:59;9.43;;;6.28;;
9729;SDS011;4904;49.152;11.004;2024-01-30T00:41:25;7.87;;;6.10;;
9729;SDS011;4904;49.152;11.004;2024-01-30T00:43:54;9.17;;;6.50;;
9729;SDS011;4904;49.152;11.004;2024-01-30T00:46:21;7.88;;;6.38;;
9729;SDS011;4904;49.152;11.004;2024-01-30T00:48:48;8.57;;;6.47;;
9729;SDS011;4904;49.152;11.004;2024-01-30T00:51:14;8.00;;;5.97;;
9729;SDS011;4904;49.152;11.004;2024-01-30T00:53:42;11.05;;;6.47;;
9729;SDS011;4904;49.152;11.004;2024-01-30T00:56:09;8.40;;;6.25;;
9729;SDS011;4904;49.152;11.004;2024-01-30T00:58:36;7.97;;;6.13;;
9729;SDS011;4904;49.152;11.004;2024-01-30T01:01:04;8.27;;;6.30;;
9729;SDS011;4904;49.152;11.004;2024-01-30T01:03:32;8.43;;;5.55;;
9729;SDS011;4904;49.152;11.004;2024-01-30T01:05:59;7.05;;;5.65;;
9729;SDS011;4904;49.152;11.004;2024-01-30T01:08:26;7.53;;;5.82;;
9729;SDS011;4904;49.152;11.004;2024-01-30T01:10:53;8.05;;;6.00;;
9729;SDS011;4904;49.152;11.004;2024-01-30T01:13:19;8.65;;;6.57;;
9729;SDS011;4904;49.152;11.004;2024-01-30T01:15:46;7.47;;;6.25;;
9729;SDS011;4904;49.152;11.004;2024-01-30T01:18:14;7.68;;;6.47;;
9729;SDS011;4904;49.152;11.004;2024-01-30T01:20:42;8.32;;;6.50;;
9729;SDS011;4904;49.152;11.004;2024-01-30T01:23:09;8.10;;;5.93;;
9729;SDS011;4904;49.152;11.004;2024-01-30T01:25:36;7.97;;;6.35;;
9729;SDS011;4904;49.152;11.004;2024-01-30T01:28:03;8.10;;;6.10;;
9729;SDS011;4904;49.152;11.004;2024-01-30T01:30:30;10.50;;;6.18;;
9729;SDS011;4904;49.152;11.004;2024-01-30T01:32:57;7.75;;;6.00;;
9729;SDS011;4904;49.152;11.004;2024-01-30T01:35:28;7.60;;;6.20;;
9729;SDS011;4904;49.152;11.004;2024-01-30T01:37:55;7.65;;;6.00;;
9729;SDS011;4904;49.152;11.004;2024-01-30T01:40:24;8.63;;;6.05;;
9729;SDS011;4904;49.152;11.004;2024-01-30T01:42:51;9.45;;;6.65;;
9729;SDS011;4904;49.152;11.004;2024-01-30T01:45:19;9.05;;;6.38;;
9729;SDS011;4904;49.152;11.004;2024-01-30T01:47:47;7.20;;;5.95;;
9729;SDS011;4904;49.152;11.004;2024-01-30T01:50:16;7.57;;;6.22;;
9729;SDS011;4904;49.152;11.004;2024-01-30T01:52:46;8.23;;;5.72;;
9729;SDS011;4904;49.152;11.004;2024-01-30T01:55:14;6.65;;;5.82;;
9729;SDS011;4904;49.152;11.004;2024-01-30T01:57:42;8.88;;;6.22;;
9729;SDS011;4904;49.152;11.004;2024-01-30T02:00:11;12.10;;;6.30;;
9729;SDS011;4904;49.152;11.004;2024-01-30T02:02:39;7.25;;;5.43;;
9729;SDS011;4904;49.152;11.004;2024-01-30T02:05:08;8.55;;;6.07;;
9729;SDS011;4904;49.152;11.004;2024-01-30T02:07:35;9.02;;;6.32;;
9729;SDS011;4904;49.152;11.004;2024-01-30T02:10:03;8.77;;;6.63;;
9729;SDS011;4904;49.152;11.004;2024-01-30T02:12:30;8.95;;;6.03;;
9729;SDS011;4904;49.152;11.004;2024-01-30T02:14:57;8.77;;;6.43;;
9729;SDS011;4904;49.152;11.004;2024-01-30T02:17:24;9.15;;;5.95;;
9729;SDS011;4904;49.152;11.004;2024-01-30T02:19:51;7.47;;;6.20;;
9729;SDS011;4904;49.152;11.004;2024-01-30T02:22:20;10.10;;;6.07;;
9729;SDS011;4904;49.152;11.004;2024-01-30T02:24:48;8.97;;;6.37;;
9729;SDS011;4904;49.152;11.004;2024-01-30T02:27:15;8.13;;;6.13;;
9729;SDS011;4904;49.152;11.004;2024-01-30T02:29:42;9.43;;;6.70;;
9729;SDS011;4904;49.152;11.004;2024-01-30T02:32:09;7.00;;;5.73;;
9729;SDS011;4904;49.152;11.004;2024-01-30T02:34:35;7.67;;;6.00;;
9729;SDS011;4904;49.152;11.004;2024-01-30T02:37:02;6.85;;;5.90;;
9729;SDS011;4904;49.152;11.004;2024-01-30T02:39:31;11.60;;;7.30;;
9729;SDS011;4904;49.152;11.004;2024-01-30T02:41:58;6.93;;;6.07;;
9729;SDS011;4904;49.152;11.004;2024-01-30T02:44:25;9.30;;;6.43;;
9729;SDS011;4904;49.152;11.004;2024-01-30T02:46:52;7.05;;;5.40;;
9729;SDS011;4904;49.152;11.004;2024-01-30T02:49:20;8.57;;;6.50;;
9729;SDS011;4904;49.152;11.004;2024-01-30T02:51:47;9.32;;;5.72;;
9729;SDS011;4904;49.152;11.004;2024-01-30T02:54:14;7.05;;;5.55;;
9729;SDS011;4904;49.152;11.004;2024-01-30T02:56:43;8.95;;;5.78;;
9729;SDS011;4904;49.152;11.004;2024-01-30T02:59:09;7.80;;;5.70;;
9729;SDS011;4904;49.152;11.004;2024-01-30T03:01:42;7.47;;;5.90;;
9729;SDS011;4904;49.152;11.004;2024-01-30T03:04:10;8.80;;;6.43;;
9729;SDS011;4904;49.152;11.004;2024-01-30T03:06:37;10.27;;;6.90;;
9729;SDS011;4904;49.152;11.004;2024-01-30T03:09:03;9.23;;;6.97;;
9729;SDS011;4904;49.152;11.004;2024-01-30T03:11:30;9.25;;;6.63;;
9729;SDS011;4904;49.152;11.004;2024-01-30T03:13:59;8.45;;;6.25;;
9729;SDS011;4904;49.152;11.004;2024-01-30T03:16:25;10.75;;;7.00;;
9729;SDS011;4904;49.152;11.004;2024-01-30T03:18:52;11.90;;;6.57;;
9729;SDS011;4904;49.152;11.004;2024-01-30T03:21:19;7.10;;;6.15;;
9729;SDS011;4904;49.152;11.004;2024-01-30T03:23:46;9.32;;;5.85;;
9729;SDS011;4904;49.152;11.004;2024-01-30T03:26:13;8.38;;;6.30;;
9729;SDS011;4904;49.152;11.004;2024-01-30T03:28:41;9.82;;;6.57;;
9729;SDS011;4904;49.152;11.004;2024-01-30T03:31:09;9.23;;;6.80;;
9729;SDS011;4904;49.152;11.004;2024-01-30T03:33:36;9.90;;;6.78;;
9729;SDS011;4904;49.152;11.004;2024-01-30T03:36:04;9.32;;;6.55;;
9729;SDS011;4904;49.152;11.004;2024-01-30T03:38:31;8.35;;;6.28;;
9729;SDS011;4904;49.152;11.004;2024-01-30T03:40:58;7.88;;;6.15;;
9729;SDS011;4904;49.152;11.004;2024-01-30T03:43:25;8.43;;;5.97;;
9729;SDS011;4904;49.152;11.004;2024-01-30T03:45:52;9.60;;;6.07;;
9729;SDS011;4904;49.152;11.004;2024-01-30T03:48:21;10.05;;;6.53;;
9729;SDS011;4904;49.152;11.004;2024-01-30T03:50:48;9.82;;;6.53;;
9729;SDS011;4904;49.152;11.004;2024-01-30T03:53:15;8.70;;;5.90;;
9729;SDS011;4904;49.152;11.004;2024-01-30T03:55:41;10.25;;;6.18;;
9729;SDS011;4904;49.152;11.004;2024-01-30T03:58:08;10.02;;;6.75;;
9729;SDS011;4904;49.152;11.004;2024-01-30T04:00:35;8.43;;;6.63;;
9729;SDS011;4904;49.152;11.004;2024-01-30T04:03:02;10.60;;;6.57;;
9729;SDS011;4904;49.152;11.004;2024-01-30T04:05:31;8.57;;;6.57;;
9729;SDS011;4904;49.152;11.004;2024-01-30T04:07:58;9.32;;;6.88;;
9729;SDS011;4904;49.152;11.004;2024-01-30T04:10:26;9.23;;;6.68;;
9729;SDS011;4904;49.152;11.004;2024-01-30T04:12:52;7.72;;;6.07;;
9729;SDS011;4904;49.152;11.004;2024-01-30T04:15:19;8.88;;;6.22;;
9729;SDS011;4904;49.152;11.004;2024-01-30T04:17:46;9.38;;;6.32;;
9729;SDS011;4904;49.152;11.004;2024-01-30T04:20:13;10.63;;;6.75;;
9729;SDS011;4904;49.152;11.004;2024-01-30T04:22:43;8.20;;;6.32;;
9729;SDS011;4904;49.152;11.004;2024-01-30T04:25:10;9.90;;;6.18;;
9729;SDS011;4904;49.152;11.004;2024-01-30T04:27:37;8.10;;;6.60;;
9729;SDS011;4904;49.152;11.004;2024-01-30T04:30:05;8.35;;;7.03;;
9729;SDS011;4904;49.152;11.004;2024-01-30T04:32:32;8.95;;;6.68;;
9729;SDS011;4904;49.152;11.004;2024-01-30T04:34:59;9.18;;;6.72;;
9729;SDS011;4904;49.152;11.004;2024-01-30T04:37:26;9.00;;;6.63;;
9729;SDS011;4904;49.152;11.004;2024-01-30T04:39:54;8.50;;;6.82;;
9729;SDS011;4904;49.152;11.004;2024-01-30T04:42:21;9.77;;;6.70;;
9729;SDS011;4904;49.152;11.004;2024-01-30T04:44:48;9.25;;;6.97;;
9729;SDS011;4904;49.152;11.004;2024-01-30T04:47:15;7.93;;;6.35;;
9729;SDS011;4904;49.152;11.004;2024-01-30T04:49:42;8.55;;;6.15;;
9729;SDS011;4904;49.152;11.004;2024-01-30T04:52:09;8.80;;;6.30;;
9729;SDS011;4904;49.152;11.004;2024-01-30T04:54:36;8.70;;;6.80;;
9729;SDS011;4904;49.152;11.004;2024-01-30T04:57:04;8.15;;;6.90;;
9729;SDS011;4904;49.152;11.004;2024-01-30T04:59:34;7.68;;;6.30;;
9729;SDS011;4904;49.152;11.004;2024-01-30T05:02:01;8.00;;;6.70;;
9729;SDS011;4904;49.152;11.004;2024-01-30T05:04:28;7.85;;;6.78;;
9729;SDS011;4904;49.152;11.004;2024-01-30T05:06:55;8.75;;;6.78;;
9729;SDS011;4904;49.152;11.004;2024-01-30T05:09:22;8.23;;;6.85;;
9729;SDS011;4904;49.152;11.004;2024-01-30T05:11:49;8.93;;;6.95;;
9729;SDS011;4904;49.152;11.004;2024-01-30T05:14:17;9.80;;;7.25;;
9729;SDS011;4904;49.152;11.004;2024-01-30T05:16:44;10.15;;;6.90;;
9729;SDS011;4904;49.152;11.004;2024-01-30T05:19:12;10.20;;;6.78;;
9729;SDS011;4904;49.152;11.004;2024-01-30T05:21:39;14.15;;;8.05;;
9729;SDS011;4904;49.152;11.004;2024-01-30T05:24:07;8.73;;;6.47;;
9729;SDS011;4904;49.152;11.004;2024-01-30T05:26:35;8.60;;;7.18;;
9729;SDS011;4904;49.152;11.004;2024-01-30T05:29:02;10.80;;;7.82;;
9729;SDS011;4904;49.152;11.004;2024-01-30T05:31:30;10.82;;;8.02;;
9729;SDS011;4904;49.152;11.004;2024-01-30T05:33:57;13.80;;;8.13;;
9729;SDS011;4904;49.152;11.004;2024-01-30T05:36:24;10.15;;;7.85;;
9729;SDS011;4904;49.152;11.004;2024-01-30T05:38:51;10.32;;;7.80;;
9729;SDS011;4904;49.152;11.004;2024-01-30T05:41:17;10.45;;;7.07;;
9729;SDS011;4904;49.152;11.004;2024-01-30T05:43:44;13.60;;;7.85;;
9729;SDS011;4904;49.152;11.004;2024-01-30T05:46:11;10.55;;;7.10;;
9729;SDS011;4904;49.152;11.004;2024-01-30T05:48:40;9.85;;;6.72;;
9729;SDS011;4904;49.152;11.004;2024-01-30T05:51:06;9.85;;;6.28;;
9729;SDS011;4904;49.152;11.004;2024-01-30T05:53:34;9.57;;;6.43;;
9729;SDS011;4904;49.152;11.004;2024-01-30T05:56:01;10.43;;;7.18;;
9729;SDS011;4904;49.152;11.004;2024-01-30T05:58:28;8.68;;;6.53;;
9729;SDS011;4904;49.152;11.004;2024-01-30T06:00:56;9.75;;;6.88;;
9729;SDS011;4904;49.152;11.004;2024-01-30T06:03:23;11.65;;;7.43;;
9729;SDS011;4904;49.152;11.004;2024-01-30T06:05:51;7.72;;;6.35;;
9729;SDS011;4904;49.152;11.004;2024-01-30T06:08:18;8.50;;;6.80;;
9729;SDS011;4904;49.152;11.004;2024-01-30T06:10:46;10.43;;;7.40;;
9729;SDS011;4904;49.152;11.004;2024-01-30T06:13:12;9.20;;;6.97;;
9729;SDS011;4904;49.152;11.004;2024-01-30T06:15:39;7.38;;;6.15;;
9729;SDS011;4904;49.152;11.004;2024-01-30T06:18:06;8.70;;;7.07;;
9729;SDS011;4904;49.152;11.004;2024-01-30T06:20:33;8.25;;;7.10;;
9729;SDS011;4904;49.152;11.004;2024-01-30T06:23:02;11.20;;;7.20;;
9729;SDS011;4904;49.152;11.004;2024-01-30T06:25:29;9.60;;;6.90;;
9729;SDS011;4904;49.152;11.004;2024-01-30T06:27:55;10.63;;;8.10;;
9729;SDS011;4904;49.152;11.004;2024-01-30T06:30:22;10.75;;;7.93;;
9729;SDS011;4904;49.152;11.004;2024-01-30T06:32:49;11.13;;;7.45;;
9729;SDS011;4904;49.152;11.004;2024-01-30T06:35:16;11.23;;;7.68;;
9729;SDS011;4904;49.152;11.004;2024-01-30T06:37:43;9.82;;;7.50;;
9729;SDS011;4904;49.152;11.004;2024-01-30T06:40:12;9.50;;;7.70;;
9729;SDS011;4904;49.152;11.004;2024-01-30T06:42:38;9.55;;;7.30;;
9729;SDS011;4904;49.152;11.004;2024-01-30T06:45:06;11.82;;;8.10;;
9729;SDS011;4904;49.152;11.004;2024-01-30T06:47:34;10.48;;;7.82;;
9729;SDS011;4904;49.152;11.004;2024-01-30T06:50:01;8.88;;;6.88;;
9729;SDS011;4904;49.152;11.004;2024-01-30T06:52:28;10.93;;;7.90;;
9729;SDS011;4904;49.152;11.004;2024-01-30T06:54:55;9.93;;;7.20;;
9729;SDS011;4904;49.152;11.004;2024-01-30T06:57:23;10.90;;;7.32;;
9729;SDS011;4904;49.152;11.004;2024-01-30T06:59:54;11.88;;;7.70;;
9729;SDS011;4904;49.152;11.004;2024-01-30T07:02:21;11.10;;;7.20;;
9729;SDS011;4904;49.152;11.004;2024-01-30T07:04:48;7.70;;;6.65;;
9729;SDS011;4904;49.152;11.004;2024-01-30T07:07:15;9.82;;;6.80;;
9729;SDS011;4904;49.152;11.004;2024-01-30T07:09:42;10.13;;;7.15;;
9729;SDS011;4904;49.152;11.004;2024-01-30T07:12:09;8.32;;;6.82;;
9729;SDS011;4904;49.152;11.004;2024-01-30T07:14:37;9.23;;;6.95;;
9729;SDS011;4904;49.152;11.004;2024-01-30T07:17:04;10.77;;;7.18;;
9729;SDS011;4904;49.152;11.004;2024-01-30T07:19:32;11.10;;;7.63;;
9729;SDS011;4904;49.152;11.004;2024-01-30T07:22:00;8.60;;;7.15;;
9729;SDS011;4904;49.152;11.004;2024-01-30T07:24:27;9.27;;;7.72;;
9729;SDS011;4904;49.152;11.004;2024-01-30T07:26:53;8.82;;;7.88;;
9729;SDS011;4904;49.152;11.004;2024-01-30T07:29:20;8.25;;;6.90;;
9729;SDS011;4904;49.152;11.004;2024-01-30T07:31:49;10.82;;;6.85;;
9729;SDS011;4904;49.152;11.004;2024-01-30T07:34:15;9.45;;;7.13;;
9729;SDS011;4904;49.152;11.004;2024-01-30T07:36:42;7.63;;;6.50;;
9729;SDS011;4904;49.152;11.004;2024-01-30T07:39:09;8.77;;;6.55;;
9729;SDS011;4904;49.152;11.004;2024-01-30T07:41:36;7.57;;;6.57;;
9729;SDS011;4904;49.152;11.004;2024-01-30T07:44:03;8.85;;;7.13;;
9729;SDS011;4904;49.152;11.004;2024-01-30T07:46:30;10.40;;;7.13;;
9729;SDS011;4904;49.152;11.004;2024-01-30T07:48:58;9.20;;;7.15;;
9729;SDS011;4904;49.152;11.004;2024-01-30T07:51:25;9.57;;;7.20;;
9729;SDS011;4904;49.152;11.004;2024-01-30T07:53:53;10.43;;;7.18;;
9729;SDS011;4904;49.152;11.004;2024-01-30T07:56:20;10.73;;;7.53;;
9729;SDS011;4904;49.152;11.004;2024-01-30T07:58:47;8.27;;;7.18;;
9729;SDS011;4904;49.152;11.004;2024-01-30T08:01:14;9.73;;;7.38;;
9729;SDS011;4904;49.152;11.004;2024-01-30T08:03:41;10.48;;;7.25;;
9729;SDS011;4904;49.152;11.004;2024-01-30T08:06:10;10.13;;;7.95;;
9729;SDS011;4904;49.152;11.004;2024-01-30T08:08:37;9.85;;;7.63;;
9729;SDS011;4904;49.152;11.004;2024-01-30T08:11:04;10.75;;;8.07;;
9729;SDS011;4904;49.152;11.004;2024-01-30T08:13:31;8.98;;;7.90;;
9729;SDS011;4904;49.152;11.004;2024-01-30T08:15:58;11.02;;;8.15;;
9729;SDS011;4904;49.152;11.004;2024-01-30T08:18:25;11.10;;;8.10;;
9729;SDS011;4904;49.152;11.004;2024-01-30T08:20:51;10.65;;;7.95;;
9729;SDS011;4904;49.152;11.004;2024-01-30T08:23:20;9.90;;;7.63;;
9729;SDS011;4904;49.152;11.004;2024-01-30T08:25:46;12.50;;;8.55;;
9729;SDS011;4904;49.152;11.004;2024-01-30T08:28:14;11.25;;;7.65;;
9729;SDS011;4904;49.152;11.004;2024-01-30T08:30:40;11.07;;;8.65;;
9729;SDS011;4904;49.152;11.004;2024-01-30T08:33:07;13.25;;;9.40;;
9729;SDS011;4904;49.152;11.004;2024-01-30T08:35:34;11.77;;;9.18;;
9729;SDS011;4904;49.152;11.004;2024-01-30T08:38:01;11.50;;;8.43;;
9729;SDS011;4904;49.152;11.004;2024-01-30T08:40:30;10.43;;;8.48;;
9729;SDS011;4904;49.152;11.004;2024-01-30T08:42:56;12.43;;;9.90;;
9729;SDS011;4904;49.152;11.004;2024-01-30T08:45:23;10.88;;;8.80;;
9729;SDS011;4904;49.152;11.004;2024-01-30T08:47:50;11.57;;;8.88;;
9729;SDS011;4904;49.152;11.004;2024-01-30T08:50:17;12.10;;;9.05;;
9729;SDS011;4904;49.152;11.004;2024-01-30T08:52:44;10.32;;;8.60;;
9729;SDS011;4904;49.152;11.004;2024-01-30T08:55:11;12.95;;;9.13;;
9729;SDS011;4904;49.152;11.004;2024-01-30T08:57:39;11.13;;;8.75;;
9729;SDS011;4904;49.152;11.004;2024-01-30T09:00:06;11.40;;;8.98;;
9729;SDS011;4904;49.152;11.004;2024-01-30T09:02:35;11.45;;;8.50;;
9729;SDS011;4904;49.152;11.004;2024-01-30T09:05:02;11.95;;;9.20;;
9729;SDS011;4904;49.152;11.004;2024-01-30T09:07:29;11.15;;;8.73;;
9729;SDS011;4904;49.152;11.004;2024-01-30T09:09:56;11.13;;;8.68;;
9729;SDS011;4904;49.152;11.004;2024-01-30T09:12:23;11.18;;;8.43;;
9729;SDS011;4904;49.152;11.004;2024-01-30T09:14:51;10.10;;;8.77;;
9729;SDS011;4904;49.152;11.004;2024-01-30T09:17:18;11.05;;;8.88;;
9729;SDS011;4904;49.152;11.004;2024-01-30T09:19:45;10.70;;;8.98;;
9729;SDS011;4904;49.152;11.004;2024-01-30T09:22:12;13.50;;;9.35;;
9729;SDS011;4904;49.152;11.004;2024-01-30T09:24:39;11.70;;;9.05;;
9729;SDS011;4904;49.152;11.004;2024-01-30T09:27:06;12.27;;;9.25;;
9729;SDS011;4904;49.152;11.004;2024-01-30T09:29:33;12.35;;;9.20;;
9729;SDS011;4904;49.152;11.004;2024-01-30T09:32:03;10.68;;;8.77;;
9729;SDS011;4904;49.152;11.004;2024-01-30T09:34:31;38.78;;;24.48;;
9729;SDS011;4904;49.152;11.004;2024-01-30T09:36:58;17.98;;;12.63;;
9729;SDS011;4904;49.152;11.004;2024-01-30T09:39:24;12.73;;;10.50;;
9729;SDS011;4904;49.152;11.004;2024-01-30T09:41:53;11.57;;;9.57;;
9729;SDS011;4904;49.152;11.004;2024-01-30T09:44:25;11.68;;;8.43;;
9729;SDS011;4904;49.152;11.004;2024-01-30T09:46:54;11.00;;;8.48;;
9729;SDS011;4904;49.152;11.004;2024-01-30T09:49:25;12.27;;;9.07;;
9729;SDS011;4904;49.152;11.004;2024-01-30T09:51:52;10.20;;;8.18;;
9729;SDS011;4904;49.152;11.004;2024-01-30T09:54:20;10.80;;;8.80;;
9729;SDS011;4904;49.152;11.004;2024-01-30T09:56:48;9.88;;;8.70;;
9729;SDS011;4904;49.152;11.004;2024-01-30T09:59:15;10.63;;;8.98;;
9729;SDS011;4904;49.152;11.004;2024-01-30T10:01:42;12.02;;;9.52;;
9729;SDS011;4904;49.152;11.004;2024-01-30T10:04:09;11.15;;;8.57;;
9729;SDS011;4904;49.152;11.004;2024-01-30T10:06:38;9.63;;;8.63;;
9729;SDS011;4904;49.152;11.004;2024-01-30T10:09:06;10.48;;;8.75;;
9729;SDS011;4904;49.152;11.004;2024-01-30T10:11:34;10.40;;;8.63;;
9729;SDS011;4904;49.152;11.004;2024-01-30T10:14:02;11.98;;;8.35;;
9729;SDS011;4904;49.152;11.004;2024-01-30T10:16:29;10.90;;;8.88;;
9729;SDS011;4904;49.152;11.004;2024-01-30T10:18:56;9.43;;;8.25;;
9729;SDS011;4904;49.152;11.004;2024-01-30T10:21:23;9.77;;;8.20;;
9729;SDS011;4904;49.152;11.004;2024-01-30T10:23:51;9.52;;;8.52;;
9729;SDS011;4904;49.152;11.004;2024-01-30T10:26:18;9.85;;;8.50;;
9729;SDS011;4904;49.152;11.004;2024-01-30T10:28:45;9.73;;;8.25;;
9729;SDS011;4904;49.152;11.004;2024-01-30T10:31:15;10.75;;;8.32;;
9729;SDS011;4904;49.152;11.004;2024-01-30T10:33:43;9.35;;;8.25;;
9729;SDS011;4904;49.152;11.004;2024-01-30T10:36:11;9.65;;;8.23;;
9729;SDS011;4904;49.152;11.004;2024-01-30T10:38:41;9.05;;;8.13;;
9729;SDS011;4904;49.152;11.004;2024-01-30T10:41:10;11.18;;;8.85;;
9729;SDS011;4904;49.152;11.004;2024-01-30T10:43:41;12.63;;;8.52;;
9729;SDS011;4904;49.152;11.004;2024-01-30T10:46:17;11.73;;;8.70;;
9729;SDS011;4904;49.152;11.004;2024-01-30T10:48:49;12.80;;;9.05;;
9729;SDS011;4904;49.152;11.004;2024-01-30T10:51:20;9.90;;;8.82;;
9729;SDS011;4904;49.152;11.004;2024-01-30T10:53:50;10.30;;;8.60;;
9729;SDS011;4904;49.152;11.004;2024-01-30T10:56:19;10.77;;;8.65;;
9729;SDS011;4904;49.152;11.004;2024-01-30T10:58:50;10.38;;;8.18;;
9729;SDS011;4904;49.152;11.004;2024-01-30T11:01:17;12.10;;;8.63;;
9729;SDS011;4904;49.152;11.004;2024-01-30T11:03:45;10.88;;;8.70;;
9729;SDS011;4904;49.152;11.004;2024-01-30T11:06:12;8.95;;;8.05;;
9729;SDS011;4904;49.152;11.004;2024-01-30T11:08:43;10.55;;;8.45;;
9729;SDS011;4904;49.152;11.004;2024-01-30T11:11:10;9.52;;;8.52;;
9729;SDS011;4904;49.152;11.004;2024-01-30T11:13:39;10.63;;;9.15;;
9729;SDS011;4904;49.152;11.004;2024-01-30T11:16:07;11.20;;;8.95;;
9729;SDS011;4904;49.152;11.004;2024-01-30T11:18:38;8.95;;;8.13;;
9729;SDS011;4904;49.152;11.004;2024-01-30T11:21:05;11.48;;;9.15;;
9729;SDS011;4904;49.152;11.004;2024-01-30T11:23:33;11.88;;;8.45;;
9729;SDS011;4904;49.152;11.004;2024-01-30T11:26:01;10.25;;;8.98;;
9729;SDS011;4904;49.152;11.004;2024-01-30T11:28:31;10.35;;;8.48;;
9729;SDS011;4904;49.152;11.004;2024-01-30T11:31:04;11.15;;;8.63;;
9729;SDS011;4904;49.152;11.004;2024-01-30T11:33:32;10.15;;;8.55;;
9729;SDS011;4904;49.152;11.004;2024-01-30T11:35:59;9.65;;;8.57;;
9729;SDS011;4904;49.152;11.004;2024-01-30T11:38:27;12.43;;;8.68;;
9729;SDS011;4904;49.152;11.004;2024-01-30T11:40:55;12.68;;;9.20;;
9729;SDS011;4904;49.152;11.004;2024-01-30T11:43:22;10.77;;;8.93;;
9729;SDS011;4904;49.152;11.004;2024-01-30T11:45:49;9.30;;;8.40;;
9729;SDS011;4904;49.152;11.004;2024-01-30T11:48:18;12.50;;;8.20;;
9729;SDS011;4904;49.152;11.004;2024-01-30T11:50:45;10.13;;;8.70;;
9729;SDS011;4904;49.152;11.004;2024-01-30T11:53:12;13.32;;;8.98;;
9729;SDS011;4904;49.152;11.004;2024-01-30T11:55:40;11.48;;;9.35;;
9729;SDS011;4904;49.152;11.004;2024-01-30T11:58:15;9.73;;;8.32;;
9729;SDS011;4904;49.152;11.004;2024-01-30T12:00:42;11.50;;;8.85;;
9729;SDS011;4904;49.152;11.004;2024-01-30T12:03:09;9.02;;;8.13;;
9729;SDS011;4904;49.152;11.004;2024-01-30T12:05:39;10.05;;;8.15;;
9729;SDS011;4904;49.152;11.004;2024-01-30T12:08:08;12.52;;;8.93;;
9729;SDS011;4904;49.152;11.004;2024-01-30T12:10:41;11.00;;;8.48;;
9729;SDS011;4904;49.152;11.004;2024-01-30T12:13:07;10.25;;;9.07;;
9729;SDS011;4904;49.152;11.004;2024-01-30T12:15:34;12.05;;;8.93;;
9729;SDS011;4904;49.152;11.004;2024-01-30T12:18:05;10.82;;;8.68;;
9729;SDS011;4904;49.152;11.004;2024-01-30T12:20:32;10.57;;;7.95;;
9729;SDS011;4904;49.152;11.004;2024-01-30T12:23:01;10.18;;;8.00;;
9729;SDS011;4904;49.152;11.004;2024-01-30T12:25:28;9.27;;;8.27;;
9729;SDS011;4904;49.152;11.004;2024-01-30T12:27:55;10.75;;;8.20;;
9729;SDS011;4904;49.152;11.004;2024-01-30T12:30:22;9.85;;;8.02;;
9729;SDS011;4904;49.152;11.004;2024-01-30T12:32:49;10.20;;;8.57;;
9729;SDS011;4904;49.152;11.004;2024-01-30T12:35:17;9.27;;;8.20;;
9729;SDS011;4904;49.152;11.004;2024-01-30T12:37:45;9.77;;;8.35;;
9729;SDS011;4904;49.152;11.004;2024-01-30T12:40:14;11.60;;;8.50;;
9729;SDS011;4904;49.152;11.004;2024-01-30T12:42:42;13.57;;;11.60;;
9729;SDS011;4904;49.152;11.004;2024-01-30T12:45:13;12.85;;;10.98;;
9729;SDS011;4904;49.152;11.004;2024-01-30T12:47:40;10.50;;;8.88;;
9729;SDS011;4904;49.152;11.004;2024-01-30T12:50:08;12.20;;;8.65;;
9729;SDS011;4904;49.152;11.004;2024-01-30T12:52:35;9.35;;;8.27;;
9729;SDS011;4904;49.152;11.004;2024-01-30T12:55:02;11.45;;;8.45;;
9729;SDS011;4904;49.152;11.004;2024-01-30T12:57:31;10.77;;;8.70;;
9729;SDS011;4904;49.152;11.004;2024-01-30T12:59:58;10.45;;;8.07;;
9729;SDS011;4904;49.152;11.004;2024-01-30T13:02:25;11.93;;;8.55;;
9729;SDS011;4904;49.152;11.004;2024-01-30T13:04:59;9.35;;;8.35;;
9729;SDS011;4904;49.152;11.004;2024-01-30T13:07:27;9.20;;;8.23;;
9729;SDS011;4904;49.152;11.004;2024-01-30T13:09:53;10.35;;;8.70;;
9729;SDS011;4904;49.152;11.004;2024-01-30T13:12:21;11.07;;;8.32;;
9729;SDS011;4904;49.152;11.004;2024-01-30T13:14:49;10.70;;;8.00;;
9729;SDS011;4904;49.152;11.004;2024-01-30T13:17:16;10.52;;;8.13;;
9729;SDS011;4904;49.152;11.004;2024-01-30T13:19:43;10.02;;;8.20;;
9729;SDS011;4904;49.152;11.004;2024-01-30T13:22:09;9.45;;;8.02;;
9729;SDS011;4904;49.152;11.004;2024-01-30T13:24:36;10.95;;;8.57;;
9729;SDS011;4904;49.152;11.004;2024-01-30T13:27:03;11.10;;;8.23;;
9729;SDS011;4904;49.152;11.004;2024-01-30T13:29:31;9.75;;;8.25;;
9729;SDS011;4904;49.152;11.004;2024-01-30T13:32:00;11.10;;;8.25;;
9729;SDS011;4904;49.152;11.004;2024-01-30T13:34:27;11.55;;;8.38;;
9729;SDS011;4904;49.152;11.004;2024-01-30T13:36:54;10.57;;;7.80;;
9729;SDS011;4904;49.152;11.004;2024-01-30T13:39:21;10.70;;;8.15;;
9729;SDS011;4904;49.152;11.004;2024-01-30T13:41:48;9.48;;;8.23;;
9729;SDS011;4904;49.152;11.004;2024-01-30T13:44:16;9.57;;;7.65;;
9729;SDS011;4904;49.152;11.004;2024-01-30T13:46:43;12.32;;;7.95;;
9729;SDS011;4904;49.152;11.004;2024-01-30T13:49:12;10.13;;;7.60;;
9729;SDS011;4904;49.152;11.004;2024-01-30T13:51:39;9.98;;;8.05;;
9729;SDS011;4904;49.152;11.004;2024-01-30T13:54:06;9.40;;;7.85;;
9729;SDS011;4904;49.152;11.004;2024-01-30T13:56:33;8.15;;;7.00;;
9729;SDS011;4904;49.152;11.004;2024-01-30T13:59:00;10.88;;;7.38;;
9729;SDS011;4904;49.152;11.004;2024-01-30T14:01:30;8.38;;;7.07;;
9729;SDS011;4904;49.152;11.004;2024-01-30T14:03:57;8.88;;;7.20;;
9729;SDS011;4904;49.152;11.004;2024-01-30T14:06:26;8.80;;;6.32;;
9729;SDS011;4904;49.152;11.004;2024-01-30T14:08:53;9.13;;;6.43;;
9729;SDS011;4904;49.152;11.004;2024-01-30T14:11:20;8.50;;;6.07;;
9729;SDS011;4904;49.152;11.004;2024-01-30T14:13:46;7.40;;;6.20;;
9729;SDS011;4904;49.152;11.004;2024-01-30T14:16:13;9.27;;;6.13;;
9729;SDS011;4904;49.152;11.004;2024-01-30T14:18:40;7.80;;;6.20;;
9729;SDS011;4904;49.152;11.004;2024-01-30T14:21:07;8.10;;;6.85;;
9729;SDS011;4904;49.152;11.004;2024-01-30T14:23:35;11.98;;;8.82;;
9729;SDS011;4904;49.152;11.004;2024-01-30T14:26:02;8.95;;;6.82;;
9729;SDS011;4904;49.152;11.004;2024-01-30T14:28:29;8.55;;;7.05;;
9729;SDS011;4904;49.152;11.004;2024-01-30T14:30:56;8.43;;;6.43;;
9729;SDS011;4904;49.152;11.004;2024-01-30T14:33:23;7.35;;;5.60;;
9729;SDS011;4904;49.152;11.004;2024-01-30T14:35:51;7.35;;;5.70;;
9729;SDS011;4904;49.152;11.004;2024-01-30T14:38:18;7.88;;;6.18;;
9729;SDS011;4904;49.152;11.004;2024-01-30T14:40:46;7.78;;;5.93;;
9729;SDS011;4904;49.152;11.004;2024-01-30T14:43:13;8.10;;;6.35;;
9729;SDS011;4904;49.152;11.004;2024-01-30T14:45:40;8.95;;;5.78;;
9729;SDS011;4904;49.152;11.004;2024-01-30T14:48:07;10.60;;;6.28;;
9729;SDS011;4904;49.152;11.004;2024-01-30T14:50:34;10.35;;;6.00;;
9729;SDS011;4904;49.152;11.004;2024-01-30T14:53:01;8.20;;;6.13;;
9729;SDS011;4904;49.152;11.004;2024-01-30T14:55:28;7.63;;;6.43;;
9729;SDS011;4904;49.152;11.004;2024-01-30T14:57:56;8.32;;;6.50;;